sensor_id;sensor_type;location;lat;lon;timestamp;pressure;altitude;pressure_sealevel;temperature;humidity
64792;BME280;51226;47.504;19.074;2023-03-26T00:00:45;99745.31;;;10.61;53.84
64792;BME280;51226;47.504;19.074;2023-03-26T00:04:11;99746.06;;;10.57;53.84
64792;BME280;51226;47.504;19.074;2023-03-26T00:07:14;99735.75;;;10.62;53.36
64792;BME280;51226;47.504;19.074;2023-03-26T00:10:18;99735.56;;;10.55;53.61
64792;BME280;51226;47.504;19.074;2023-03-26T00:13:21;99732.81;;;10.49;54.02
64792;BME280;51226;47.504;19.074;2023-03-26T00:16:28;99733.91;;;10.57;53.91
64792;BME280;51226;47.504;19.074;2023-03-26T00:19:31;99730.31;;;10.54;54.02
64792;BME280;51226;47.504;19.074;2023-03-26T00:22:34;99736.75;;;10.67;53.22
64792;BME280;51226;47.504;19.074;2023-03-26T00:25:38;99741.75;;;10.59;53.38
64792;BME280;51226;47.504;19.074;2023-03-26T00:28:43;99721.66;;;10.55;53.45
64792;BME280;51226;47.504;19.074;2023-03-26T00:31:46;99740.88;;;10.59;52.72
64792;BME280;51226;47.504;19.074;2023-03-26T00:34:49;99737.34;;;10.56;52.71
64792;BME280;51226;47.504;19.074;2023-03-26T00:37:53;99732.91;;;10.52;52.54
64792;BME280;51226;47.504;19.074;2023-03-26T00:40:59;99738.12;;;10.54;52.70
64792;BME280;51226;47.504;19.074;2023-03-26T00:44:08;99732.88;;;10.51;53.03
64792;BME280;51226;47.504;19.074;2023-03-26T00:47:11;99724.31;;;10.56;53.20
64792;BME280;51226;47.504;19.074;2023-03-26T00:50:14;99725.78;;;10.47;54.35
64792;BME280;51226;47.504;19.074;2023-03-26T00:53:18;99718.06;;;10.50;53.58
64792;BME280;51226;47.504;19.074;2023-03-26T00:56:21;99711.25;;;10.55;53.66
64792;BME280;51226;47.504;19.074;2023-03-26T00:59:24;99716.50;;;10.56;53.72
64792;BME280;51226;47.504;19.074;2023-03-26T01:02:31;99710.19;;;10.48;54.13
64792;BME280;51226;47.504;19.074;2023-03-26T01:05:42;99708.44;;;10.49;53.86
64792;BME280;51226;47.504;19.074;2023-03-26T01:08:50;99700.69;;;10.50;53.78
64792;BME280;51226;47.504;19.074;2023-03-26T01:11:54;99703.19;;;10.47;54.93
64792;BME280;51226;47.504;19.074;2023-03-26T01:14:59;99705.88;;;10.50;54.51
64792;BME280;51226;47.504;19.074;2023-03-26T01:18:04;99699.06;;;10.55;53.73
64792;BME280;51226;47.504;19.074;2023-03-26T01:21:11;99708.53;;;10.52;53.97
64792;BME280;51226;47.504;19.074;2023-03-26T01:24:15;99712.06;;;10.52;53.86
64792;BME280;51226;47.504;19.074;2023-03-26T01:30:33;99713.06;;;10.57;53.12
64792;BME280;51226;47.504;19.074;2023-03-26T01:39:55;99707.62;;;10.50;53.08
64792;BME280;51226;47.504;19.074;2023-03-26T01:43:08;99707.50;;;10.45;53.56
64792;BME280;51226;47.504;19.074;2023-03-26T01:46:14;99724.09;;;10.49;53.36
64792;BME280;51226;47.504;19.074;2023-03-26T01:49:19;99725.00;;;10.49;54.00
64792;BME280;51226;47.504;19.074;2023-03-26T01:52:22;99721.63;;;10.53;53.21
64792;BME280;51226;47.504;19.074;2023-03-26T01:55:47;99710.19;;;10.48;53.52
64792;BME280;51226;47.504;19.074;2023-03-26T02:06:12;99720.72;;;10.51;52.95
64792;BME280;51226;47.504;19.074;2023-03-26T02:09:21;99723.22;;;10.48;52.91
64792;BME280;51226;47.504;19.074;2023-03-26T02:12:27;99727.56;;;10.48;52.90
64792;BME280;51226;47.504;19.074;2023-03-26T02:15:31;99725.66;;;10.42;54.31
64792;BME280;51226;47.504;19.074;2023-03-26T02:18:34;99726.50;;;10.41;54.19
64792;BME280;51226;47.504;19.074;2023-03-26T02:21:43;99727.34;;;10.40;53.58
64792;BME280;51226;47.504;19.074;2023-03-26T02:24:47;99737.75;;;10.40;53.49
64792;BME280;51226;47.504;19.074;2023-03-26T02:27:51;99732.59;;;10.42;53.39
64792;BME280;51226;47.504;19.074;2023-03-26T02:30:54;99737.09;;;10.47;52.75
64792;BME280;51226;47.504;19.074;2023-03-26T02:33:59;99732.91;;;10.52;52.61
64792;BME280;51226;47.504;19.074;2023-03-26T02:37:02;99724.69;;;10.38;53.54
64792;BME280;51226;47.504;19.074;2023-03-26T02:40:06;99727.25;;;10.37;53.53
64792;BME280;51226;47.504;19.074;2023-03-26T02:43:12;99713.22;;;10.32;53.52
64792;BME280;51226;47.504;19.074;2023-03-26T02:46:18;99719.34;;;10.34;53.63
64792;BME280;51226;47.504;19.074;2023-03-26T02:49:22;99714.03;;;10.31;53.63
64792;BME280;51226;47.504;19.074;2023-03-26T02:52:26;99705.25;;;10.29;53.86
64792;BME280;51226;47.504;19.074;2023-03-26T02:55:30;99704.25;;;10.24;54.50
64792;BME280;51226;47.504;19.074;2023-03-26T02:58:34;99705.94;;;10.22;54.38
64792;BME280;51226;47.504;19.074;2023-03-26T03:01:37;99702.66;;;10.29;53.97
64792;BME280;51226;47.504;19.074;2023-03-26T03:04:44;99703.47;;;10.26;53.86
64792;BME280;51226;47.504;19.074;2023-03-26T03:07:47;99706.72;;;10.17;54.88
64792;BME280;51226;47.504;19.074;2023-03-26T03:11:00;99707.50;;;10.15;55.07
64792;BME280;51226;47.504;19.074;2023-03-26T03:14:04;99704.69;;;10.09;55.39
64792;BME280;51226;47.504;19.074;2023-03-26T03:17:07;99711.63;;;10.08;55.34
64792;BME280;51226;47.504;19.074;2023-03-26T03:20:10;99714.16;;;10.05;56.46
64792;BME280;51226;47.504;19.074;2023-03-26T03:23:14;99721.00;;;10.01;56.35
64792;BME280;51226;47.504;19.074;2023-03-26T03:26:19;99720.03;;;9.98;56.57
64792;BME280;51226;47.504;19.074;2023-03-26T03:29:25;99721.72;;;9.96;56.57
64792;BME280;51226;47.504;19.074;2023-03-26T03:32:28;99711.37;;;9.99;56.59
64792;BME280;51226;47.504;19.074;2023-03-26T03:35:32;99716.63;;;10.00;56.53
64792;BME280;51226;47.504;19.074;2023-03-26T03:38:39;99712.31;;;10.01;55.97
64792;BME280;51226;47.504;19.074;2023-03-26T03:41:43;99715.75;;;10.00;56.04
64792;BME280;51226;47.504;19.074;2023-03-26T03:44:46;99707.00;;;9.98;56.55
64792;BME280;51226;47.504;19.074;2023-03-26T03:47:51;99714.78;;;9.96;56.13
64792;BME280;51226;47.504;19.074;2023-03-26T03:50:55;99733.00;;;9.96;56.16
64792;BME280;51226;47.504;19.074;2023-03-26T03:53:59;99735.00;;;10.05;55.08
64792;BME280;51226;47.504;19.074;2023-03-26T03:57:02;99730.44;;;10.28;53.69
64792;BME280;51226;47.504;19.074;2023-03-26T04:00:07;99736.16;;;10.15;53.90
64792;BME280;51226;47.504;19.074;2023-03-26T04:03:17;99733.97;;;10.00;54.47
64792;BME280;51226;47.504;19.074;2023-03-26T04:06:36;99734.16;;;10.06;54.38
64792;BME280;51226;47.504;19.074;2023-03-26T04:09:40;99728.78;;;10.00;54.56
64792;BME280;51226;47.504;19.074;2023-03-26T04:12:44;99736.69;;;10.03;54.29
64792;BME280;51226;47.504;19.074;2023-03-26T04:15:47;99745.97;;;9.95;54.56
64792;BME280;51226;47.504;19.074;2023-03-26T04:18:50;99734.22;;;9.79;55.00
64792;BME280;51226;47.504;19.074;2023-03-26T04:21:53;99737.03;;;9.58;55.97
64792;BME280;51226;47.504;19.074;2023-03-26T04:24:56;99744.09;;;9.62;55.62
64792;BME280;51226;47.504;19.074;2023-03-26T04:28:00;99739.28;;;9.47;56.90
64792;BME280;51226;47.504;19.074;2023-03-26T04:31:13;99732.56;;;9.54;56.08
64792;BME280;51226;47.504;19.074;2023-03-26T04:34:22;99731.84;;;9.58;55.71
64792;BME280;51226;47.504;19.074;2023-03-26T04:37:34;99731.47;;;9.45;56.95
64792;BME280;51226;47.504;19.074;2023-03-26T04:40:38;99735.81;;;9.46;56.69
64792;BME280;51226;47.504;19.074;2023-03-26T04:43:42;99735.00;;;9.48;57.50
64792;BME280;51226;47.504;19.074;2023-03-26T04:46:49;99739.00;;;9.65;55.36
64792;BME280;51226;47.504;19.074;2023-03-26T04:49:55;99745.97;;;9.66;55.79
64792;BME280;51226;47.504;19.074;2023-03-26T04:52:57;99745.88;;;9.63;56.46
64792;BME280;51226;47.504;19.074;2023-03-26T04:56:58;99743.53;;;9.71;55.09
64792;BME280;51226;47.504;19.074;2023-03-26T04:59:37;99744.25;;;9.67;56.08
64792;BME280;51226;47.504;19.074;2023-03-26T05:02:43;99753.91;;;9.69;56.72
64792;BME280;51226;47.504;19.074;2023-03-26T05:05:47;99749.06;;;9.81;55.59
64792;BME280;51226;47.504;19.074;2023-03-26T05:08:51;99741.78;;;10.00;54.14
64792;BME280;51226;47.504;19.074;2023-03-26T05:11:55;99732.38;;;10.05;54.68
64792;BME280;51226;47.504;19.074;2023-03-26T05:15:00;99731.94;;;10.20;53.39
64792;BME280;51226;47.504;19.074;2023-03-26T05:18:03;99728.88;;;10.33;52.46
64792;BME280;51226;47.504;19.074;2023-03-26T05:21:07;99727.56;;;10.17;53.98
64792;BME280;51226;47.504;19.074;2023-03-26T05:24:10;99727.75;;;10.25;53.68
64792;BME280;51226;47.504;19.074;2023-03-26T05:27:16;99730.81;;;10.41;53.43
64792;BME280;51226;47.504;19.074;2023-03-26T05:30:21;99743.41;;;10.55;53.38
64792;BME280;51226;47.504;19.074;2023-03-26T05:33:25;99737.59;;;10.66;53.09
64792;BME280;51226;47.504;19.074;2023-03-26T05:36:28;99724.81;;;10.75;53.18
64792;BME280;51226;47.504;19.074;2023-03-26T05:39:32;99723.50;;;10.91;53.19
64792;BME280;51226;47.504;19.074;2023-03-26T05:42:38;99730.75;;;11.03;53.09
64792;BME280;51226;47.504;19.074;2023-03-26T05:45:43;99726.63;;;11.12;52.43
64792;BME280;51226;47.504;19.074;2023-03-26T05:48:49;99732.88;;;11.18;52.83
64792;BME280;51226;47.504;19.074;2023-03-26T05:51:53;99733.81;;;11.21;52.79
64792;BME280;51226;47.504;19.074;2023-03-26T05:54:58;99734.44;;;11.47;50.29
64792;BME280;51226;47.504;19.074;2023-03-26T05:58:13;99736.50;;;11.61;49.96
64792;BME280;51226;47.504;19.074;2023-03-26T06:01:25;99733.75;;;11.93;48.64
64792;BME280;51226;47.504;19.074;2023-03-26T06:04:31;99734.22;;;11.75;49.12
64792;BME280;51226;47.504;19.074;2023-03-26T06:07:34;99718.16;;;11.58;50.73
64792;BME280;51226;47.504;19.074;2023-03-26T06:10:38;99723.56;;;11.67;49.09
64792;BME280;51226;47.504;19.074;2023-03-26T06:13:41;99719.87;;;11.57;50.01
64792;BME280;51226;47.504;19.074;2023-03-26T06:16:45;99725.31;;;11.66;49.39
64792;BME280;51226;47.504;19.074;2023-03-26T06:19:48;99723.47;;;11.62;49.62
64792;BME280;51226;47.504;19.074;2023-03-26T06:22:52;99713.84;;;11.60;49.44
64792;BME280;51226;47.504;19.074;2023-03-26T06:25:55;99719.37;;;11.74;48.54
64792;BME280;51226;47.504;19.074;2023-03-26T06:28:59;99722.94;;;11.77;50.05
64792;BME280;51226;47.504;19.074;2023-03-26T06:32:02;99708.28;;;11.84;49.04
64792;BME280;51226;47.504;19.074;2023-03-26T06:35:21;99708.62;;;11.98;48.50
64792;BME280;51226;47.504;19.074;2023-03-26T06:38:24;99705.38;;;12.10;47.45
64792;BME280;51226;47.504;19.074;2023-03-26T06:41:27;99712.66;;;12.26;49.43
64792;BME280;51226;47.504;19.074;2023-03-26T06:44:31;99718.09;;;12.35;48.33
64792;BME280;51226;47.504;19.074;2023-03-26T06:47:36;99713.19;;;12.52;46.83
64792;BME280;51226;47.504;19.074;2023-03-26T06:50:41;99717.19;;;12.81;47.89
64792;BME280;51226;47.504;19.074;2023-03-26T06:53:45;99719.59;;;13.17;46.71
64792;BME280;51226;47.504;19.074;2023-03-26T06:56:50;99709.63;;;13.48;45.79
64792;BME280;51226;47.504;19.074;2023-03-26T06:59:53;99717.06;;;13.78;44.13
64792;BME280;51226;47.504;19.074;2023-03-26T07:03:04;99718.25;;;14.02;42.70
64792;BME280;51226;47.504;19.074;2023-03-26T07:06:18;99705.22;;;14.09;44.99
64792;BME280;51226;47.504;19.074;2023-03-26T07:09:22;99710.91;;;14.43;42.27
64792;BME280;51226;47.504;19.074;2023-03-26T07:12:28;99711.16;;;14.65;42.50
64792;BME280;51226;47.504;19.074;2023-03-26T07:15:31;99704.47;;;14.98;43.39
64792;BME280;51226;47.504;19.074;2023-03-26T07:18:36;99692.53;;;15.37;39.80
64792;BME280;51226;47.504;19.074;2023-03-26T07:21:40;99698.84;;;15.64;40.70
64792;BME280;51226;47.504;19.074;2023-03-26T07:24:45;99693.84;;;16.08;38.32
64792;BME280;51226;47.504;19.074;2023-03-26T07:27:53;99701.88;;;16.42;36.85
64792;BME280;51226;47.504;19.074;2023-03-26T07:34:42;99711.59;;;16.68;36.29
64792;BME280;51226;47.504;19.074;2023-03-26T07:44:55;99717.84;;;17.02;35.26
64792;BME280;51226;47.504;19.074;2023-03-26T07:48:01;99718.72;;;17.21;35.26
64792;BME280;51226;47.504;19.074;2023-03-26T07:51:07;99716.06;;;17.46;36.60
64792;BME280;51226;47.504;19.074;2023-03-26T07:54:12;99713.38;;;17.86;35.52
64792;BME280;51226;47.504;19.074;2023-03-26T08:00:47;99719.41;;;18.33;34.24
64792;BME280;51226;47.504;19.074;2023-03-26T08:11:09;99715.12;;;17.92;35.43
64792;BME280;51226;47.504;19.074;2023-03-26T08:21:11;99706.34;;;16.73;35.14
64792;BME280;51226;47.504;19.074;2023-03-26T08:24:20;99718.59;;;16.64;35.49
64792;BME280;51226;47.504;19.074;2023-03-26T08:27:38;99710.69;;;16.57;37.94
64792;BME280;51226;47.504;19.074;2023-03-26T08:30:42;99702.81;;;16.63;36.63
64792;BME280;51226;47.504;19.074;2023-03-26T08:33:45;99706.34;;;16.73;35.43
64792;BME280;51226;47.504;19.074;2023-03-26T08:36:48;99707.22;;;16.72;36.24
64792;BME280;51226;47.504;19.074;2023-03-26T08:39:51;99710.63;;;16.40;37.45
64792;BME280;51226;47.504;19.074;2023-03-26T08:43:15;99705.22;;;16.04;37.91
64792;BME280;51226;47.504;19.074;2023-03-26T08:46:56;99700.66;;;15.72;39.07
64792;BME280;51226;47.504;19.074;2023-03-26T09:07:59;99692.91;;;15.91;38.86
64792;BME280;51226;47.504;19.074;2023-03-26T09:11:36;99686.13;;;16.61;37.62
64792;BME280;51226;47.504;19.074;2023-03-26T09:15:21;99686.16;;;17.58;35.71
64792;BME280;51226;47.504;19.074;2023-03-26T09:40:17;99666.81;;;17.64;34.74
64792;BME280;51226;47.504;19.074;2023-03-26T09:50:39;99645.75;;;17.56;33.76
64792;BME280;51226;47.504;19.074;2023-03-26T09:57:06;99637.06;;;19.04;32.18
64792;BME280;51226;47.504;19.074;2023-03-26T10:10:46;99607.75;;;22.12;26.17
64792;BME280;51226;47.504;19.074;2023-03-26T10:14:01;99598.44;;;21.50;26.97
64792;BME280;51226;47.504;19.074;2023-03-26T10:27:36;99595.19;;;18.50;30.87
64792;BME280;51226;47.504;19.074;2023-03-26T10:47:54;99598.41;;;14.79;47.73
64792;BME280;51226;47.504;19.074;2023-03-26T10:57:37;99589.59;;;16.69;44.36
64792;BME280;51226;47.504;19.074;2023-03-26T11:00:49;99581.63;;;17.34;38.87
64792;BME280;51226;47.504;19.074;2023-03-26T11:04:06;99566.72;;;17.27;38.82
64792;BME280;51226;47.504;19.074;2023-03-26T11:07:36;99557.84;;;17.55;38.41
64792;BME280;51226;47.504;19.074;2023-03-26T11:14:03;99541.91;;;17.85;37.91
64792;BME280;51226;47.504;19.074;2023-03-26T11:28:02;99523.44;;;17.80;40.40
64792;BME280;51226;47.504;19.074;2023-03-26T11:34:27;99502.53;;;18.78;38.21
64792;BME280;51226;47.504;19.074;2023-03-26T11:37:41;99501.72;;;18.69;36.95
64792;BME280;51226;47.504;19.074;2023-03-26T11:40:46;99491.59;;;18.17;37.46
64792;BME280;51226;47.504;19.074;2023-03-26T11:44:00;99483.84;;;17.86;38.49
64792;BME280;51226;47.504;19.074;2023-03-26T11:47:08;99470.41;;;18.26;36.56
64792;BME280;51226;47.504;19.074;2023-03-26T11:50:18;99474.97;;;19.03;36.81
64792;BME280;51226;47.504;19.074;2023-03-26T11:53:27;99470.97;;;20.08;32.92
64792;BME280;51226;47.504;19.074;2023-03-26T11:56:33;99460.06;;;20.28;32.07
64792;BME280;51226;47.504;19.074;2023-03-26T11:59:43;99465.13;;;20.41;32.04
64792;BME280;51226;47.504;19.074;2023-03-26T12:02:59;99439.91;;;20.69;31.87
64792;BME280;51226;47.504;19.074;2023-03-26T12:06:02;99437.22;;;20.20;31.38
64792;BME280;51226;47.504;19.074;2023-03-26T12:09:18;99431.13;;;20.14;35.44
64792;BME280;51226;47.504;19.074;2023-03-26T12:12:41;99410.81;;;20.18;32.55
64792;BME280;51226;47.504;19.074;2023-03-26T12:15:47;99408.44;;;19.99;33.67
64792;BME280;51226;47.504;19.074;2023-03-26T12:19:16;99398.13;;;19.83;32.68
64792;BME280;51226;47.504;19.074;2023-03-26T12:22:32;99396.78;;;19.52;32.29
64792;BME280;51226;47.504;19.074;2023-03-26T12:25:38;99387.31;;;19.36;33.50
64792;BME280;51226;47.504;19.074;2023-03-26T12:28:44;99374.59;;;19.62;32.28
64792;BME280;51226;47.504;19.074;2023-03-26T12:32:05;99366.28;;;19.28;32.49
64792;BME280;51226;47.504;19.074;2023-03-26T12:35:21;99374.66;;;18.94;32.15
64792;BME280;51226;47.504;19.074;2023-03-26T12:41:38;99355.50;;;18.74;32.63
64792;BME280;51226;47.504;19.074;2023-03-26T12:45:05;99349.03;;;19.01;32.65
64792;BME280;51226;47.504;19.074;2023-03-26T12:48:13;99334.34;;;19.42;31.49
64792;BME280;51226;47.504;19.074;2023-03-26T13:01:29;99321.34;;;19.86;31.27
64792;BME280;51226;47.504;19.074;2023-03-26T13:05:07;99326.19;;;19.56;28.50
64792;BME280;51226;47.504;19.074;2023-03-26T13:08:28;99317.03;;;19.19;28.14
64792;BME280;51226;47.504;19.074;2023-03-26T13:28:20;99267.25;;;18.90;28.79
64792;BME280;51226;47.504;19.074;2023-03-26T13:38:25;99259.06;;;18.42;29.57
64792;BME280;51226;47.504;19.074;2023-03-26T13:48:26;99238.66;;;19.18;28.99
64792;BME280;51226;47.504;19.074;2023-03-26T13:51:56;99238.06;;;19.54;27.40
64792;BME280;51226;47.504;19.074;2023-03-26T14:01:14;99232.59;;;18.46;29.43
64792;BME280;51226;47.504;19.074;2023-03-26T14:07:39;99221.59;;;18.79;30.81
64792;BME280;51226;47.504;19.074;2023-03-26T14:10:49;99219.47;;;18.40;29.61
64792;BME280;51226;47.504;19.074;2023-03-26T14:14:00;99208.94;;;18.39;28.68
64792;BME280;51226;47.504;19.074;2023-03-26T14:17:40;99200.78;;;18.56;28.65
64792;BME280;51226;47.504;19.074;2023-03-26T14:54:42;99158.50;;;17.90;25.36
64792;BME280;51226;47.504;19.074;2023-03-26T15:04:41;99140.22;;;17.70;25.86
64792;BME280;51226;47.504;19.074;2023-03-26T15:35:35;99089.91;;;17.08;28.92
64792;BME280;51226;47.504;19.074;2023-03-26T15:48:33;99080.41;;;16.90;29.56
64792;BME280;51226;47.504;19.074;2023-03-26T15:51:48;99082.19;;;16.90;29.61
64792;BME280;51226;47.504;19.074;2023-03-26T15:55:28;99074.28;;;16.83;30.04
64792;BME280;51226;47.504;19.074;2023-03-26T16:02:06;99071.84;;;16.62;31.64
64792;BME280;51226;47.504;19.074;2023-03-26T16:11:51;99052.56;;;16.60;31.58
64792;BME280;51226;47.504;19.074;2023-03-26T16:24:42;99015.03;;;16.35;32.48
64792;BME280;51226;47.504;19.074;2023-03-26T16:27:45;99006.41;;;16.16;32.93
64792;BME280;51226;47.504;19.074;2023-03-26T16:38:09;99009.09;;;16.05;33.41
64792;BME280;51226;47.504;19.074;2023-03-26T16:41:26;99011.84;;;15.88;33.37
64792;BME280;51226;47.504;19.074;2023-03-26T16:44:44;99006.59;;;15.82;33.92
64792;BME280;51226;47.504;19.074;2023-03-26T16:48:05;99003.09;;;15.75;33.81
64792;BME280;51226;47.504;19.074;2023-03-26T16:51:33;99013.69;;;15.67;34.32
64792;BME280;51226;47.504;19.074;2023-03-26T17:01:53;99011.94;;;15.60;33.43
64792;BME280;51226;47.504;19.074;2023-03-26T17:08:45;99014.69;;;15.34;35.58
64792;BME280;51226;47.504;19.074;2023-03-26T17:12:38;99017.31;;;15.38;34.47
64792;BME280;51226;47.504;19.074;2023-03-26T17:22:13;99022.62;;;15.05;35.93
64792;BME280;51226;47.504;19.074;2023-03-26T17:32:08;99018.25;;;15.07;35.88
64792;BME280;51226;47.504;19.074;2023-03-26T17:35:14;99019.16;;;15.06;36.23
64792;BME280;51226;47.504;19.074;2023-03-26T17:41:54;99020.91;;;14.94;36.40
64792;BME280;51226;47.504;19.074;2023-03-26T17:45:13;99018.28;;;14.88;36.60
64792;BME280;51226;47.504;19.074;2023-03-26T17:48:20;99015.69;;;14.84;36.93
64792;BME280;51226;47.504;19.074;2023-03-26T17:52:13;99022.72;;;14.77;37.24
64792;BME280;51226;47.504;19.074;2023-03-26T17:54:50;99014.81;;;14.75;37.07
64792;BME280;51226;47.504;19.074;2023-03-26T17:57:59;99012.19;;;14.80;37.95
64792;BME280;51226;47.504;19.074;2023-03-26T18:01:31;99012.19;;;14.89;36.32
64792;BME280;51226;47.504;19.074;2023-03-26T18:04:39;99015.69;;;14.76;36.82
64792;BME280;51226;47.504;19.074;2023-03-26T18:17:30;99016.56;;;14.81;36.84
64792;BME280;51226;47.504;19.074;2023-03-26T18:20:39;99017.44;;;14.69;39.73
64792;BME280;51226;47.504;19.074;2023-03-26T18:23:47;99004.31;;;14.63;38.12
64792;BME280;51226;47.504;19.074;2023-03-26T18:26:57;99007.84;;;14.62;40.98
64792;BME280;51226;47.504;19.074;2023-03-26T18:30:17;99008.72;;;14.62;38.99
64792;BME280;51226;47.504;19.074;2023-03-26T18:33:20;99006.94;;;14.86;37.61
64792;BME280;51226;47.504;19.074;2023-03-26T18:36:24;99006.03;;;14.99;36.45
64792;BME280;51226;47.504;19.074;2023-03-26T18:39:28;98993.81;;;14.83;36.84
64792;BME280;51226;47.504;19.074;2023-03-26T18:42:32;98987.72;;;14.66;38.28
64792;BME280;51226;47.504;19.074;2023-03-26T18:45:36;98985.94;;;14.61;38.27
64792;BME280;51226;47.504;19.074;2023-03-26T18:48:41;98987.72;;;14.62;38.11
64792;BME280;51226;47.504;19.074;2023-03-26T18:51:45;98984.22;;;14.65;37.54
64792;BME280;51226;47.504;19.074;2023-03-26T18:55:01;98977.22;;;14.62;37.46
64792;BME280;51226;47.504;19.074;2023-03-26T18:58:26;98973.72;;;14.59;37.79
64792;BME280;51226;47.504;19.074;2023-03-26T19:01:34;98961.47;;;14.59;39.48
64792;BME280;51226;47.504;19.074;2023-03-26T19:04:38;98957.09;;;14.69;37.35
64792;BME280;51226;47.504;19.074;2023-03-26T19:07:48;98944.88;;;14.59;37.69
64792;BME280;51226;47.504;19.074;2023-03-26T19:10:53;98940.47;;;14.50;38.25
64792;BME280;51226;47.504;19.074;2023-03-26T19:14:05;98944.84;;;14.54;37.96
64792;BME280;51226;47.504;19.074;2023-03-26T19:17:10;98937.00;;;14.62;38.09
64792;BME280;51226;47.504;19.074;2023-03-26T19:20:17;98934.37;;;14.39;41.23
64792;BME280;51226;47.504;19.074;2023-03-26T19:23:25;98935.25;;;14.32;40.34
64792;BME280;51226;47.504;19.074;2023-03-26T19:26:30;98930.88;;;14.27;42.19
64792;BME280;51226;47.504;19.074;2023-03-26T19:29:34;98925.63;;;14.24;43.01
64792;BME280;51226;47.504;19.074;2023-03-26T19:32:38;98923.91;;;14.19;42.75
64792;BME280;51226;47.504;19.074;2023-03-26T19:35:42;98925.66;;;14.15;41.77
64792;BME280;51226;47.504;19.074;2023-03-26T19:38:51;98918.63;;;14.09;40.41
64792;BME280;51226;47.504;19.074;2023-03-26T19:41:54;98913.41;;;14.13;40.71
64792;BME280;51226;47.504;19.074;2023-03-26T19:44:58;98902.03;;;14.20;40.12
64792;BME280;51226;47.504;19.074;2023-03-26T19:48:06;98895.94;;;14.10;43.23
64792;BME280;51226;47.504;19.074;2023-03-26T19:51:18;98887.16;;;14.06;45.00
64792;BME280;51226;47.504;19.074;2023-03-26T19:54:21;98882.81;;;14.05;43.11
64792;BME280;51226;47.504;19.074;2023-03-26T19:57:24;98877.56;;;14.05;43.55
64792;BME280;51226;47.504;19.074;2023-03-26T20:00:27;98868.81;;;14.11;41.60
64792;BME280;51226;47.504;19.074;2023-03-26T20:03:38;98867.09;;;14.08;41.28
64792;BME280;51226;47.504;19.074;2023-03-26T20:06:41;98858.34;;;14.08;40.88
64792;BME280;51226;47.504;19.074;2023-03-26T20:09:47;98849.59;;;14.03;43.32
64792;BME280;51226;47.504;19.074;2023-03-26T20:12:53;98840.88;;;13.96;42.59
64792;BME280;51226;47.504;19.074;2023-03-26T20:19:07;98823.41;;;13.94;44.18
64792;BME280;51226;47.504;19.074;2023-03-26T20:22:18;98821.66;;;13.94;43.83
64792;BME280;51226;47.504;19.074;2023-03-26T20:25:31;98816.41;;;13.97;42.82
64792;BME280;51226;47.504;19.074;2023-03-26T20:28:35;98803.31;;;13.94;42.17
64792;BME280;51226;47.504;19.074;2023-03-26T20:31:49;98801.59;;;13.88;44.52
64792;BME280;51226;47.504;19.074;2023-03-26T20:34:53;98802.44;;;13.89;41.76
64792;BME280;51226;47.504;19.074;2023-03-26T20:37:56;98790.16;;;14.08;40.41
64792;BME280;51226;47.504;19.074;2023-03-26T20:40:59;98792.81;;;13.94;41.41
64792;BME280;51226;47.504;19.074;2023-03-26T20:44:02;98792.84;;;13.74;44.10
64792;BME280;51226;47.504;19.074;2023-03-26T20:47:09;98784.13;;;13.72;42.70
64792;BME280;51226;47.504;19.074;2023-03-26T20:50:13;98777.12;;;13.69;42.18
64792;BME280;51226;47.504;19.074;2023-03-26T20:53:17;98779.75;;;13.71;41.34
64792;BME280;51226;47.504;19.074;2023-03-26T20:56:21;98771.00;;;13.97;40.38
64792;BME280;51226;47.504;19.074;2023-03-26T20:59:26;98764.91;;;13.85;40.88
64792;BME280;51226;47.504;19.074;2023-03-26T21:02:29;98764.03;;;13.68;41.11
64792;BME280;51226;47.504;19.074;2023-03-26T21:05:33;98761.44;;;13.63;41.27
64792;BME280;51226;47.504;19.074;2023-03-26T21:08:36;98755.31;;;13.50;41.85
64792;BME280;51226;47.504;19.074;2023-03-26T21:14:48;98748.34;;;13.37;44.59
64792;BME280;51226;47.504;19.074;2023-03-26T21:17:52;98748.34;;;13.40;42.71
64792;BME280;51226;47.504;19.074;2023-03-26T21:21:26;98748.34;;;13.40;43.37
64792;BME280;51226;47.504;19.074;2023-03-26T21:28:36;98754.44;;;13.44;43.45
64792;BME280;51226;47.504;19.074;2023-03-26T21:31:44;98770.16;;;13.48;43.38
64792;BME280;51226;47.504;19.074;2023-03-26T21:34:48;98790.22;;;13.49;43.65
64792;BME280;51226;47.504;19.074;2023-03-26T21:38:04;98797.22;;;13.32;44.33
64792;BME280;51226;47.504;19.074;2023-03-26T21:41:15;98803.25;;;13.28;45.52
64792;BME280;51226;47.504;19.074;2023-03-26T21:44:22;98795.47;;;13.42;44.60
64792;BME280;51226;47.504;19.074;2023-03-26T21:47:25;98798.94;;;13.34;45.36
64792;BME280;51226;47.504;19.074;2023-03-26T21:50:29;98801.53;;;13.28;49.86
64792;BME280;51226;47.504;19.074;2023-03-26T21:53:33;98803.25;;;13.28;50.54
64792;BME280;51226;47.504;19.074;2023-03-26T22:00:14;98800.66;;;13.17;52.91
64792;BME280;51226;47.504;19.074;2023-03-26T22:03:35;98798.03;;;13.17;52.88
64792;BME280;51226;47.504;19.074;2023-03-26T22:06:52;98796.28;;;13.18;53.01
64792;BME280;51226;47.504;19.074;2023-03-26T22:09:56;98798.88;;;13.08;53.31
64792;BME280;51226;47.504;19.074;2023-03-26T22:12:59;98789.28;;;13.10;54.32
64792;BME280;51226;47.504;19.074;2023-03-26T22:16:02;98794.50;;;13.06;54.05
64792;BME280;51226;47.504;19.074;2023-03-26T22:19:06;98775.31;;;12.99;54.31
64792;BME280;51226;47.504;19.074;2023-03-26T22:22:10;98772.66;;;12.94;55.63
64792;BME280;51226;47.504;19.074;2023-03-26T22:25:15;98770.03;;;12.93;55.07
64792;BME280;51226;47.504;19.074;2023-03-26T22:28:19;98776.16;;;13.00;55.07
64792;BME280;51226;47.504;19.074;2023-03-26T22:31:22;98772.69;;;13.01;55.45